createdAt,value
2022-11-19T00:00:30.202Z,5.50
2022-11-19T00:04:32.157Z,5.50
2022-11-19T00:08:37.009Z,5.60
2022-11-19T00:12:38.954Z,5.60
2022-11-19T00:16:41.597Z,5.60
2022-11-19T00:20:43.523Z,5.60
2022-11-19T00:24:48.040Z,5.60
2022-11-19T00:28:50.452Z,5.60
2022-11-19T00:32:52.489Z,5.60
2022-11-19T00:36:54.453Z,5.60
2022-11-19T00:40:59.200Z,5.60
2022-11-19T00:45:01.175Z,5.50
2022-11-19T00:49:03.273Z,5.40
2022-11-19T00:53:05.228Z,5.40
2022-11-19T00:57:09.777Z,5.40
2022-11-19T01:01:13.225Z,5.40
2022-11-19T01:05:15.276Z,5.40
2022-11-19T01:09:17.609Z,5.40
2022-11-19T01:13:22.436Z,5.40
2022-11-19T01:17:24.458Z,5.40
2022-11-19T01:21:28.465Z,5.50
2022-11-19T01:25:30.412Z,5.50
2022-11-19T01:29:34.994Z,5.50
2022-11-19T01:33:37.632Z,5.50
2022-11-19T01:37:39.629Z,5.50
2022-11-19T01:41:41.596Z,5.60
2022-11-19T01:45:48.021Z,5.60
2022-11-19T01:49:50.577Z,5.60
2022-11-19T01:53:56.354Z,5.60
2022-11-19T01:58:01.333Z,5.70
2022-11-19T02:02:05.873Z,5.70
2022-11-19T02:06:08.238Z,5.60
2022-11-19T02:10:10.484Z,5.60
2022-11-19T02:14:28.493Z,5.70
2022-11-19T02:18:42.508Z,5.70
2022-11-19T02:23:15.360Z,5.70
2022-11-19T02:27:50.201Z,5.70
2022-11-19T02:31:58.989Z,5.70
2022-11-19T02:36:08.172Z,5.80
2022-11-19T02:40:16.630Z,5.90
2022-11-19T02:44:24.696Z,5.90
2022-11-19T02:48:34.418Z,5.90
2022-11-19T02:52:37.513Z,6.00
2022-11-19T02:56:48.451Z,6.10
2022-11-19T03:00:51.083Z,6.00
2022-11-19T03:04:56.080Z,6.10
2022-11-19T03:08:59.123Z,6.10
2022-11-19T03:13:08.110Z,6.10
2022-11-19T03:17:17.286Z,6.10
2022-11-19T03:21:28.622Z,6.10
2022-11-19T03:25:37.323Z,6.10
2022-11-19T03:29:43.739Z,6.10
2022-11-19T03:33:49.860Z,6.10
2022-11-19T03:37:59.138Z,6.10
2022-11-19T03:42:01.518Z,6.10
2022-11-19T03:46:06.087Z,6.00
2022-11-19T03:50:17.056Z,6.10
2022-11-19T03:54:21.383Z,6.10
2022-11-19T03:58:24.806Z,6.10
2022-11-19T04:02:26.809Z,6.10
2022-11-19T04:06:28.757Z,6.00
2022-11-19T04:10:33.320Z,6.00
2022-11-19T04:14:35.249Z,6.10
2022-11-19T04:18:37.189Z,6.10
2022-11-19T04:22:39.132Z,6.10
2022-11-19T04:26:43.664Z,6.00
2022-11-19T04:30:45.633Z,6.10
2022-11-19T04:34:47.581Z,6.00
2022-11-19T04:38:49.622Z,6.00
2022-11-19T04:42:54.147Z,5.90
2022-11-19T04:46:56.081Z,5.90
2022-11-19T04:50:58.025Z,5.80
2022-11-19T04:54:59.990Z,5.80
2022-11-19T04:59:04.840Z,5.80
2022-11-19T05:03:06.809Z,5.80
2022-11-19T05:07:08.817Z,5.80
2022-11-19T05:11:10.835Z,5.80
2022-11-19T05:15:15.591Z,5.80
2022-11-19T05:19:17.788Z,5.80
2022-11-19T05:23:19.950Z,5.80
2022-11-19T05:27:21.918Z,5.80
2022-11-19T05:31:26.437Z,5.80
2022-11-19T05:35:28.402Z,5.70
2022-11-19T05:39:30.353Z,5.70
2022-11-19T05:43:32.262Z,5.60
2022-11-19T05:47:36.835Z,5.50
2022-11-19T05:51:38.803Z,5.50
2022-11-19T05:55:40.749Z,5.50
2022-11-19T05:59:44.170Z,5.50
2022-11-19T06:03:48.911Z,5.50
2022-11-19T06:07:50.895Z,5.60
2022-11-19T06:11:52.860Z,5.60
2022-11-19T06:15:54.831Z,5.50
2022-11-19T06:19:59.449Z,5.50
2022-11-19T06:24:01.580Z,5.60
2022-11-19T06:28:03.573Z,5.60
2022-11-19T06:32:05.590Z,5.60
2022-11-19T06:36:10.695Z,5.60
2022-11-19T06:40:14.455Z,5.60
2022-11-19T06:44:16.451Z,5.60
2022-11-19T06:48:18.405Z,5.70
2022-11-19T06:52:22.987Z,5.70
2022-11-19T06:56:25.020Z,5.70
2022-11-19T07:00:27.146Z,5.80
2022-11-19T07:04:29.176Z,5.90
2022-11-19T07:08:34.411Z,5.90
2022-11-19T07:12:36.413Z,5.90
2022-11-19T07:16:38.408Z,6.00
2022-11-19T07:20:40.460Z,6.00
2022-11-19T07:24:45.037Z,6.10
2022-11-19T07:28:47.216Z,6.20
2022-11-19T07:32:49.193Z,6.30
2022-11-19T07:36:51.149Z,6.30
2022-11-19T07:40:56.098Z,6.40
2022-11-19T07:44:58.093Z,6.60
2022-11-19T07:49:00.259Z,6.80
2022-11-19T07:53:02.223Z,6.80
2022-11-19T07:57:06.927Z,6.80
2022-11-19T08:01:09.501Z,6.80
2022-11-19T08:05:11.611Z,6.70
2022-11-19T08:09:13.567Z,6.80
2022-11-19T08:13:18.106Z,6.70
2022-11-19T08:17:20.033Z,6.90
2022-11-19T08:21:21.962Z,7.10
2022-11-19T08:25:23.942Z,7.20
2022-11-19T08:29:28.529Z,7.20
2022-11-19T08:33:30.508Z,7.30
2022-11-19T08:37:32.447Z,7.60
2022-11-19T08:41:34.387Z,7.80
2022-11-19T08:45:39.474Z,7.90
2022-11-19T08:49:41.529Z,8.00
2022-11-19T08:53:43.678Z,8.00
2022-11-19T08:57:45.868Z,8.10
2022-11-19T09:01:50.949Z,8.00
2022-11-19T09:05:59.029Z,8.30
2022-11-19T09:10:01.250Z,8.40
2022-11-19T09:14:03.493Z,8.50
2022-11-19T09:18:08.367Z,8.50
2022-11-19T09:22:10.496Z,8.70
2022-11-19T09:26:14.737Z,8.70
2022-11-19T09:30:17.110Z,8.60
2022-11-19T09:34:22.155Z,8.60
2022-11-19T09:38:24.614Z,8.50
2022-11-19T09:42:34.833Z,8.40
2022-11-19T09:46:45.712Z,8.50
2022-11-19T09:50:55.685Z,8.30
2022-11-19T09:54:58.213Z,8.20
2022-11-19T09:59:02.429Z,8.40
2022-11-19T10:03:13.888Z,8.40
2022-11-19T10:07:28.647Z,8.50
2022-11-19T10:11:39.607Z,8.60
2022-11-19T10:15:50.162Z,8.80
2022-11-19T10:20:09.458Z,8.60
2022-11-19T10:24:16.828Z,8.50
2022-11-19T10:28:22.934Z,8.40
2022-11-19T10:32:31.147Z,8.50
2022-11-19T10:36:38.959Z,8.60
2022-11-19T10:40:49.567Z,8.60
2022-11-19T10:44:55.988Z,8.80
2022-11-19T10:48:59.180Z,8.90
2022-11-19T10:53:08.475Z,8.80
2022-11-19T10:57:19.222Z,8.60
2022-11-19T11:01:28.239Z,8.70
2022-11-19T11:05:31.229Z,8.80
2022-11-19T11:09:34.732Z,8.90
2022-11-19T11:13:40.590Z,8.90
2022-11-19T11:17:43.393Z,9.10
2022-11-19T11:21:46.671Z,8.90
2022-11-19T11:25:54.126Z,8.80
2022-11-19T11:30:18.882Z,8.80
2022-11-19T11:34:30.722Z,9.00
2022-11-19T11:38:38.901Z,9.20
2022-11-19T11:42:40.875Z,9.10
2022-11-19T11:46:47.725Z,9.00
2022-11-19T11:50:50.598Z,8.90
2022-11-19T11:54:58.167Z,8.50
2022-11-19T11:59:24.359Z,8.40
2022-11-19T12:03:34.389Z,8.30
2022-11-19T12:08:01.247Z,8.50
2022-11-19T12:12:09.524Z,8.50
2022-11-19T12:16:18.976Z,8.40
2022-11-19T12:20:30.900Z,8.60
2022-11-19T12:24:47.716Z,8.80
2022-11-19T12:29:01.080Z,8.70
2022-11-19T12:33:21.900Z,8.70
2022-11-19T12:37:41.286Z,8.70
2022-11-19T12:41:58.823Z,8.60
2022-11-19T12:46:10.539Z,8.50
2022-11-19T12:50:22.198Z,8.40
2022-11-19T12:54:43.951Z,8.30
2022-11-19T12:58:52.653Z,8.20
2022-11-19T13:03:08.525Z,8.40
2022-11-19T13:07:15.818Z,8.70
2022-11-19T13:11:25.218Z,9.00
2022-11-19T13:15:30.303Z,9.10
2022-11-19T13:19:36.524Z,9.10
2022-11-19T13:23:42.477Z,8.90
2022-11-19T13:27:49.358Z,8.70
2022-11-19T13:31:56.398Z,8.60
2022-11-19T13:36:07.246Z,8.40
2022-11-19T13:40:25.130Z,8.20
2022-11-19T13:44:29.741Z,8.20
2022-11-19T13:48:35.571Z,8.30
2022-11-19T13:52:42.553Z,8.30
2022-11-19T13:56:46.848Z,8.30
2022-11-19T14:01:19.964Z,8.30
2022-11-19T14:05:54.273Z,8.30
2022-11-19T14:10:07.074Z,8.30
2022-11-19T14:14:24.231Z,8.30
2022-11-19T14:18:33.282Z,8.30
2022-11-19T14:22:40.579Z,8.20
